Paganini — V2CL8 — position and weather

sailwx.info

Track history (hours):
 
Tides and Currents Weather Stations Pressure Air Temp Water Temp Dewpoint Dewpoint Depression Visibility Wind Speed Wind Dir Waves Ship Positions

Paganini

Last reported at 2015-Mar-26 23:33 UTC. Time now 2015-Mar-27 08:17 UTC.
Position N 47°22' W 006°42'.

Length 90 m; draft 5.6 m.

Type: Cargo ship. MMSI: 305040000.

Date/timePositionNaut miles runAvg speedWind from/ knotsBaromVisibWave heightAir tempDewpointWater temp
2015-Mar-26 23:33N 47°22' W 006°42'  
2015-Mar-23 09:31N 39°11' W 009°50'7 7.2
2015-Mar-23 08:33N 39°04' W 009°50'8 7.6
2015-Mar-23 07:33N 38°57' W 009°50'8 8.0
2015-Mar-23 06:33N 38°49' W 009°50'8 8.2
2015-Mar-23 05:33N 38°41' W 009°49'8 8.4
2015-Mar-23 04:33N 38°32' W 009°47'8 8.6
2015-Mar-23 03:33N 38°24' W 009°44'9 8.7
2015-Mar-23 02:33N 38°16' W 009°41'9 8.9
2015-Mar-23 01:32N 38°07' W 009°39'9 8.9
2015-Mar-23 00:33N 37°58' W 009°37'10 9.4
2015-Mar-22 23:33N 37°49' W 009°34'9 9.5
2015-Mar-22 22:33N 37°40' W 009°31'66 8.1
2015-Mar-22 14:24N 36°42' W 008°51'163 9.6
2015-Mar-21 21:20N 35°58' W 005°36'6 7.4
2015-Mar-21 20:33N 35°59' W 005°29'6 6.5
2015-Mar-21 19:33N 35°57' W 005°22'4 4.0
2015-Mar-21 18:33N 35°54' W 005°19'0 0.0
2015-Mar-21 17:33N 35°54' W 005°19'0 0.0
2015-Mar-21 16:33N 35°54' W 005°19'0 0.0
2015-Mar-21 15:33N 35°54' W 005°19'1 0.9
2015-Mar-21 14:33N 35°55' W 005°19'5 5.2
2015-Mar-21 13:33N 35°57' W 005°13'345 9.1
2015-Mar-19 23:32N 37°14' E 001°45'11 9.5
2015-Mar-19 22:23N 37°17' E 001°58'8 9.5
2015-Mar-19 21:33N 37°19' E 002°08'10 9.6
2015-Mar-19 20:33N 37°21' E 002°20'10 9.8
2015-Mar-19 19:33N 37°24' E 002°32'1010.1
2015-Mar-19 18:33N 37°26' E 002°44'  
Track history (hours):
 
Tides and Currents Weather Stations Pressure Air Temp Water Temp Dewpoint Dewpoint Depression Visibility Wind Speed Wind Dir Waves Ship Positions

Paganini

Last reported at 2015-Mar-26 23:33 UTC. Time now 2015-Mar-27 08:17 UTC.
Position N 47°22' W 006°42'.

Length 90 m; draft 5.6 m.

Type: Cargo ship. MMSI: 305040000.

Date/timePositionNaut miles runAvg speedWind from/ knotsBaromVisibWave heightAir tempDewpointWater temp
2015-Mar-26 23:33N 47°22' W 006°42'  
2015-Mar-23 09:31N 39°11' W 009°50'7 7.2
2015-Mar-23 08:33N 39°04' W 009°50'8 7.6
2015-Mar-23 07:33N 38°57' W 009°50'8 8.0
2015-Mar-23 06:33N 38°49' W 009°50'8 8.2
2015-Mar-23 05:33N 38°41' W 009°49'8 8.4
2015-Mar-23 04:33N 38°32' W 009°47'8 8.6
2015-Mar-23 03:33N 38°24' W 009°44'9 8.7
2015-Mar-23 02:33N 38°16' W 009°41'9 8.9
2015-Mar-23 01:32N 38°07' W 009°39'9 8.9
2015-Mar-23 00:33N 37°58' W 009°37'10 9.4
2015-Mar-22 23:33N 37°49' W 009°34'9 9.5
2015-Mar-22 22:33N 37°40' W 009°31'66 8.1
2015-Mar-22 14:24N 36°42' W 008°51'163 9.6
2015-Mar-21 21:20N 35°58' W 005°36'6 7.4
2015-Mar-21 20:33N 35°59' W 005°29'6 6.5
2015-Mar-21 19:33N 35°57' W 005°22'4 4.0
2015-Mar-21 18:33N 35°54' W 005°19'0 0.0
2015-Mar-21 17:33N 35°54' W 005°19'0 0.0
2015-Mar-21 16:33N 35°54' W 005°19'0 0.0
2015-Mar-21 15:33N 35°54' W 005°19'1 0.9
2015-Mar-21 14:33N 35°55' W 005°19'5 5.2
2015-Mar-21 13:33N 35°57' W 005°13'345 9.1
2015-Mar-19 23:32N 37°14' E 001°45'11 9.5
2015-Mar-19 22:23N 37°17' E 001°58'8 9.5
2015-Mar-19 21:33N 37°19' E 002°08'10 9.6
2015-Mar-19 20:33N 37°21' E 002°20'10 9.8
2015-Mar-19 19:33N 37°24' E 002°32'1010.1
2015-Mar-19 18:33N 37°26' E 002°44'  

Dump ship's entire track history